sensor_id;sensor_type;location;lat;lon;timestamp;pressure;altitude;pressure_sealevel;temperature;humidity
76592;BME280;65481;47.600;19.682;2023-03-07T00:01:39;99269.53;;;1.69;100.00
76592;BME280;65481;47.600;19.682;2023-03-07T00:06:39;99280.88;;;1.55;100.00
76592;BME280;65481;47.600;19.682;2023-03-07T00:11:40;99267.88;;;1.55;100.00
76592;BME280;65481;47.600;19.682;2023-03-07T00:16:40;99269.09;;;1.59;100.00
76592;BME280;65481;47.600;19.682;2023-03-07T00:21:41;99265.69;;;1.58;100.00
76592;BME280;65481;47.600;19.682;2023-03-07T00:26:41;99270.75;;;1.38;100.00
76592;BME280;65481;47.600;19.682;2023-03-07T00:31:43;99264.81;;;1.44;100.00
76592;BME280;65481;47.600;19.682;2023-03-07T00:36:43;99261.25;;;1.52;100.00
76592;BME280;65481;47.600;19.682;2023-03-07T00:41:44;99253.09;;;1.62;100.00
76592;BME280;65481;47.600;19.682;2023-03-07T00:46:45;99249.72;;;1.61;100.00
76592;BME280;65481;47.600;19.682;2023-03-07T00:51:45;99258.25;;;1.48;100.00
76592;BME280;65481;47.600;19.682;2023-03-07T00:56:46;99240.53;;;1.30;100.00
76592;BME280;65481;47.600;19.682;2023-03-07T01:01:46;99242.25;;;1.16;100.00
76592;BME280;65481;47.600;19.682;2023-03-07T01:06:47;99231.63;;;1.11;100.00
76592;BME280;65481;47.600;19.682;2023-03-07T01:11:48;99231.63;;;1.11;100.00
76592;BME280;65481;47.600;19.682;2023-03-07T01:16:49;99237.06;;;1.16;100.00
76592;BME280;65481;47.600;19.682;2023-03-07T01:21:49;99232.66;;;1.17;100.00
76592;BME280;65481;47.600;19.682;2023-03-07T01:26:49;99236.97;;;1.03;100.00
76592;BME280;65481;47.600;19.682;2023-03-07T01:31:50;99234.69;;;0.93;100.00
76592;BME280;65481;47.600;19.682;2023-03-07T01:36:51;99234.03;;;0.84;100.00
76592;BME280;65481;47.600;19.682;2023-03-07T01:41:51;99229.69;;;0.92;100.00
76592;BME280;65481;47.600;19.682;2023-03-07T01:46:56;99227.72;;;0.94;100.00
76592;BME280;65481;47.600;19.682;2023-03-07T01:52:02;99228.09;;;0.90;100.00
76592;BME280;65481;47.600;19.682;2023-03-07T01:57:04;99208.50;;;0.88;100.00
76592;BME280;65481;47.600;19.682;2023-03-07T02:02:09;99209.50;;;0.87;100.00
76592;BME280;65481;47.600;19.682;2023-03-07T02:07:12;99213.44;;;0.83;100.00
76592;BME280;65481;47.600;19.682;2023-03-07T02:12:13;99204.84;;;0.82;100.00
76592;BME280;65481;47.600;19.682;2023-03-07T02:17:15;99210.81;;;0.76;100.00
76592;BME280;65481;47.600;19.682;2023-03-07T02:22:17;99213.81;;;0.80;100.00
76592;BME280;65481;47.600;19.682;2023-03-07T02:27:18;99209.81;;;0.77;100.00
76592;BME280;65481;47.600;19.682;2023-03-07T02:32:19;99212.16;;;0.72;100.00
76592;BME280;65481;47.600;19.682;2023-03-07T02:37:33;99201.69;;;0.58;100.00
76592;BME280;65481;47.600;19.682;2023-03-07T02:42:38;99197.53;;;0.64;100.00
76592;BME280;65481;47.600;19.682;2023-03-07T02:47:41;99206.34;;;0.70;100.00
76592;BME280;65481;47.600;19.682;2023-03-07T02:52:42;99209.38;;;0.73;100.00
76592;BME280;65481;47.600;19.682;2023-03-07T02:57:42;99194.25;;;0.77;100.00
76592;BME280;65481;47.600;19.682;2023-03-07T03:02:43;99192.88;;;0.81;100.00
76592;BME280;65481;47.600;19.682;2023-03-07T03:07:43;99205.47;;;0.84;100.00
76592;BME280;65481;47.600;19.682;2023-03-07T03:12:44;99212.09;;;0.87;100.00
76592;BME280;65481;47.600;19.682;2023-03-07T03:17:45;99214.44;;;0.82;100.00
76592;BME280;65481;47.600;19.682;2023-03-07T03:22:46;99210.56;;;0.71;100.00
76592;BME280;65481;47.600;19.682;2023-03-07T03:27:46;99209.31;;;0.67;100.00
76592;BME280;65481;47.600;19.682;2023-03-07T03:32:47;99211.59;;;0.77;100.00
76592;BME280;65481;47.600;19.682;2023-03-07T03:37:48;99206.44;;;0.83;100.00
76592;BME280;65481;47.600;19.682;2023-03-07T03:42:48;99204.84;;;0.82;100.00
76592;BME280;65481;47.600;19.682;2023-03-07T03:47:50;99201.69;;;0.87;100.00
76592;BME280;65481;47.600;19.682;2023-03-07T03:52:50;99208.31;;;0.89;100.00
76592;BME280;65481;47.600;19.682;2023-03-07T03:57:51;99206.91;;;0.87;100.00
76592;BME280;65481;47.600;19.682;2023-03-07T04:02:51;99203.31;;;0.88;100.00
76592;BME280;65481;47.600;19.682;2023-03-07T04:07:52;99215.22;;;0.82;100.00
76592;BME280;65481;47.600;19.682;2023-03-07T04:12:52;99215.13;;;0.69;100.00
76592;BME280;65481;47.600;19.682;2023-03-07T04:17:53;99222.34;;;0.73;100.00
76592;BME280;65481;47.600;19.682;2023-03-07T04:22:53;99223.97;;;0.74;100.00
76592;BME280;65481;47.600;19.682;2023-03-07T04:27:54;99208.69;;;0.65;100.00
76592;BME280;65481;47.600;19.682;2023-03-07T04:32:54;99202.72;;;0.64;100.00
76592;BME280;65481;47.600;19.682;2023-03-07T04:37:55;99206.41;;;0.77;100.00
76592;BME280;65481;47.600;19.682;2023-03-07T04:42:55;99207.28;;;0.84;100.00
76592;BME280;65481;47.600;19.682;2023-03-07T04:47:56;99206.84;;;0.80;100.00
76592;BME280;65481;47.600;19.682;2023-03-07T04:52:56;99214.31;;;0.62;100.00
76592;BME280;65481;47.600;19.682;2023-03-07T04:57:57;99222.56;;;0.50;100.00
76592;BME280;65481;47.600;19.682;2023-03-07T05:02:57;99227.13;;;0.48;100.00
76592;BME280;65481;47.600;19.682;2023-03-07T05:08:01;99230.00;;;0.53;100.00
76592;BME280;65481;47.600;19.682;2023-03-07T05:13:03;99239.34;;;0.48;100.00
76592;BME280;65481;47.600;19.682;2023-03-07T05:18:03;99239.91;;;0.43;100.00
76592;BME280;65481;47.600;19.682;2023-03-07T05:23:04;99244.09;;;0.44;100.00
76592;BME280;65481;47.600;19.682;2023-03-07T05:28:04;99241.88;;;0.41;100.00
76592;BME280;65481;47.600;19.682;2023-03-07T05:33:05;99248.09;;;0.47;100.00
76592;BME280;65481;47.600;19.682;2023-03-07T05:38:06;99244.22;;;0.57;100.00
76592;BME280;65481;47.600;19.682;2023-03-07T05:43:07;99241.06;;;0.62;100.00
76592;BME280;65481;47.600;19.682;2023-03-07T05:48:07;99244.84;;;0.59;100.00
76592;BME280;65481;47.600;19.682;2023-03-07T05:53:08;99235.91;;;0.69;100.00
76592;BME280;65481;47.600;19.682;2023-03-07T05:58:09;99252.72;;;0.73;100.00
76592;BME280;65481;47.600;19.682;2023-03-07T06:03:09;99251.53;;;0.75;100.00
76592;BME280;65481;47.600;19.682;2023-03-07T06:08:10;99258.03;;;0.86;100.00
76592;BME280;65481;47.600;19.682;2023-03-07T06:13:16;99253.06;;;0.92;100.00
76592;BME280;65481;47.600;19.682;2023-03-07T06:18:18;99263.44;;;1.13;100.00
76592;BME280;65481;47.600;19.682;2023-03-07T06:23:19;99262.72;;;1.26;100.00
76592;BME280;65481;47.600;19.682;2023-03-07T06:28:20;99281.38;;;1.36;100.00
76592;BME280;65481;47.600;19.682;2023-03-07T06:33:20;99282.22;;;1.44;100.00
76592;BME280;65481;47.600;19.682;2023-03-07T06:38:22;99297.50;;;1.60;100.00
76592;BME280;65481;47.600;19.682;2023-03-07T06:43:23;99297.34;;;1.69;100.00
76592;BME280;65481;47.600;19.682;2023-03-07T06:48:23;99295.63;;;1.89;100.00
76592;BME280;65481;47.600;19.682;2023-03-07T06:53:24;99295.78;;;2.23;100.00
76592;BME280;65481;47.600;19.682;2023-03-07T06:58:25;99296.00;;;2.35;100.00
76592;BME280;65481;47.600;19.682;2023-03-07T07:03:25;99287.63;;;2.53;100.00
76592;BME280;65481;47.600;19.682;2023-03-07T07:08:26;99293.66;;;2.67;100.00
76592;BME280;65481;47.600;19.682;2023-03-07T07:13:27;99290.44;;;2.85;100.00
76592;BME280;65481;47.600;19.682;2023-03-07T07:18:27;99294.44;;;3.21;100.00
76592;BME280;65481;47.600;19.682;2023-03-07T07:23:28;99291.00;;;3.61;100.00
76592;BME280;65481;47.600;19.682;2023-03-07T07:28:28;99297.31;;;3.92;100.00
76592;BME280;65481;47.600;19.682;2023-03-07T07:33:29;99295.03;;;4.09;100.00
76592;BME280;65481;47.600;19.682;2023-03-07T07:38:30;99293.88;;;4.37;100.00
76592;BME280;65481;47.600;19.682;2023-03-07T07:43:31;99291.38;;;4.55;100.00
76592;BME280;65481;47.600;19.682;2023-03-07T07:48:31;99288.78;;;4.81;100.00
76592;BME280;65481;47.600;19.682;2023-03-07T07:53:32;99300.94;;;4.94;100.00
76592;BME280;65481;47.600;19.682;2023-03-07T07:58:33;99297.63;;;5.05;100.00
76592;BME280;65481;47.600;19.682;2023-03-07T08:03:34;99297.38;;;5.13;100.00
76592;BME280;65481;47.600;19.682;2023-03-07T08:08:34;99299.38;;;5.37;100.00
76592;BME280;65481;47.600;19.682;2023-03-07T08:13:35;99299.56;;;5.60;100.00
76592;BME280;65481;47.600;19.682;2023-03-07T08:18:35;99292.72;;;5.78;100.00
76592;BME280;65481;47.600;19.682;2023-03-07T08:23:36;99298.03;;;5.90;100.00
76592;BME280;65481;47.600;19.682;2023-03-07T08:28:37;99292.69;;;5.97;100.00
76592;BME280;65481;47.600;19.682;2023-03-07T08:33:38;99286.44;;;6.16;100.00
76592;BME280;65481;47.600;19.682;2023-03-07T08:38:38;99295.41;;;6.39;100.00
76592;BME280;65481;47.600;19.682;2023-03-07T08:43:39;99296.13;;;6.46;100.00
76592;BME280;65481;47.600;19.682;2023-03-07T08:48:39;99305.66;;;6.71;100.00
76592;BME280;65481;47.600;19.682;2023-03-07T08:53:42;99307.16;;;6.91;100.00
76592;BME280;65481;47.600;19.682;2023-03-07T08:58:43;99304.00;;;7.01;100.00
76592;BME280;65481;47.600;19.682;2023-03-07T09:03:44;99302.75;;;7.15;100.00
76592;BME280;65481;47.600;19.682;2023-03-07T09:08:46;99309.03;;;7.38;100.00
76592;BME280;65481;47.600;19.682;2023-03-07T09:13:47;99305.13;;;7.64;100.00
76592;BME280;65481;47.600;19.682;2023-03-07T09:18:47;99306.06;;;7.87;97.80
76592;BME280;65481;47.600;19.682;2023-03-07T09:23:48;99300.34;;;8.02;93.51
76592;BME280;65481;47.600;19.682;2023-03-07T09:28:49;99302.47;;;8.17;88.23
76592;BME280;65481;47.600;19.682;2023-03-07T09:33:49;99302.28;;;8.36;80.27
76592;BME280;65481;47.600;19.682;2023-03-07T09:38:50;99289.91;;;8.36;74.62
76592;BME280;65481;47.600;19.682;2023-03-07T09:44:01;99293.50;;;8.30;76.37
76592;BME280;65481;47.600;19.682;2023-03-07T09:54:16;99288.88;;;8.20;70.06
76592;BME280;65481;47.600;19.682;2023-03-07T10:04:42;99283.94;;;8.41;68.52
76592;BME280;65481;47.600;19.682;2023-03-07T10:09:46;99278.94;;;8.39;65.48
76592;BME280;65481;47.600;19.682;2023-03-07T10:15:06;99292.28;;;8.49;62.22
76592;BME280;65481;47.600;19.682;2023-03-07T10:20:21;99291.31;;;8.85;62.72
76592;BME280;65481;47.600;19.682;2023-03-07T10:25:28;99286.56;;;9.21;59.93
76592;BME280;65481;47.600;19.682;2023-03-07T10:30:31;99283.81;;;9.33;56.74
76592;BME280;65481;47.600;19.682;2023-03-07T10:35:39;99286.44;;;9.50;56.21
76592;BME280;65481;47.600;19.682;2023-03-07T10:40:53;99287.47;;;9.93;53.10
76592;BME280;65481;47.600;19.682;2023-03-07T10:46:20;99283.34;;;10.03;50.25
76592;BME280;65481;47.600;19.682;2023-03-07T11:02:29;99266.34;;;11.56;41.94
76592;BME280;65481;47.600;19.682;2023-03-07T11:07:35;99258.09;;;12.16;40.48
76592;BME280;65481;47.600;19.682;2023-03-07T11:12:43;99251.97;;;12.00;40.18
76592;BME280;65481;47.600;19.682;2023-03-07T11:17:46;99246.09;;;11.77;39.46
76592;BME280;65481;47.600;19.682;2023-03-07T11:22:47;99246.25;;;11.55;39.58
76592;BME280;65481;47.600;19.682;2023-03-07T11:27:53;99235.31;;;11.31;40.94
76592;BME280;65481;47.600;19.682;2023-03-07T11:33:21;99223.22;;;11.45;40.85
76592;BME280;65481;47.600;19.682;2023-03-07T11:49:07;99196.84;;;11.50;41.07
76592;BME280;65481;47.600;19.682;2023-03-07T11:59:32;99180.69;;;10.83;41.84
76592;BME280;65481;47.600;19.682;2023-03-07T12:05:00;99187.16;;;10.65;41.85
76592;BME280;65481;47.600;19.682;2023-03-07T12:16:00;99171.56;;;9.98;42.50
76592;BME280;65481;47.600;19.682;2023-03-07T12:26:26;99171.78;;;9.92;43.01
76592;BME280;65481;47.600;19.682;2023-03-07T12:31:45;99165.66;;;9.86;43.52
76592;BME280;65481;47.600;19.682;2023-03-07T12:36:54;99155.97;;;9.92;43.15
76592;BME280;65481;47.600;19.682;2023-03-07T12:47:31;99151.75;;;9.91;42.90
76592;BME280;65481;47.600;19.682;2023-03-07T12:58:00;99150.59;;;10.09;42.89
76592;BME280;65481;47.600;19.682;2023-03-07T13:03:04;99148.19;;;10.07;42.80
76592;BME280;65481;47.600;19.682;2023-03-07T13:08:06;99143.19;;;10.06;43.05
76592;BME280;65481;47.600;19.682;2023-03-07T13:18:45;99144.22;;;10.05;44.30
76592;BME280;65481;47.600;19.682;2023-03-07T13:23:45;99146.72;;;9.89;45.73
76592;BME280;65481;47.600;19.682;2023-03-07T13:28:46;99135.94;;;9.63;50.50
76592;BME280;65481;47.600;19.682;2023-03-07T13:33:50;99137.31;;;9.44;55.53
76592;BME280;65481;47.600;19.682;2023-03-07T13:38:50;99152.09;;;9.22;58.70
76592;BME280;65481;47.600;19.682;2023-03-07T13:53:55;99146.91;;;8.66;64.57
76592;BME280;65481;47.600;19.682;2023-03-07T14:09:48;99139.69;;;8.27;65.81
76592;BME280;65481;47.600;19.682;2023-03-07T14:25:46;99134.13;;;8.24;64.19
76592;BME280;65481;47.600;19.682;2023-03-07T14:31:15;99119.41;;;8.23;64.14
76592;BME280;65481;47.600;19.682;2023-03-07T14:36:18;99113.28;;;8.17;63.72
76592;BME280;65481;47.600;19.682;2023-03-07T14:41:31;99111.91;;;8.14;63.95
76592;BME280;65481;47.600;19.682;2023-03-07T14:47:11;99107.78;;;8.18;63.36
76592;BME280;65481;47.600;19.682;2023-03-07T14:52:15;99105.06;;;8.13;62.04
76592;BME280;65481;47.600;19.682;2023-03-07T14:57:37;99099.00;;;7.96;62.97
76592;BME280;65481;47.600;19.682;2023-03-07T15:03:06;99096.13;;;7.80;63.69
76592;BME280;65481;47.600;19.682;2023-03-07T15:08:27;99092.22;;;7.66;64.85
76592;BME280;65481;47.600;19.682;2023-03-07T15:18:46;99105.84;;;7.51;64.81
76592;BME280;65481;47.600;19.682;2023-03-07T15:23:56;99103.28;;;7.39;64.59
76592;BME280;65481;47.600;19.682;2023-03-07T15:29:04;99094.19;;;7.30;65.35
76592;BME280;65481;47.600;19.682;2023-03-07T15:34:09;99094.31;;;7.23;65.29
76592;BME280;65481;47.600;19.682;2023-03-07T15:39:29;99091.03;;;7.16;67.15
76592;BME280;65481;47.600;19.682;2023-03-07T15:44:34;99099.84;;;7.09;68.62
76592;BME280;65481;47.600;19.682;2023-03-07T15:49:43;99096.53;;;7.02;70.27
76592;BME280;65481;47.600;19.682;2023-03-07T15:54:49;99088.81;;;6.95;71.88
76592;BME280;65481;47.600;19.682;2023-03-07T15:59:58;99084.59;;;6.94;72.40
76592;BME280;65481;47.600;19.682;2023-03-07T16:05:27;99086.88;;;6.91;74.35
76592;BME280;65481;47.600;19.682;2023-03-07T16:10:29;99080.25;;;6.88;75.67
76592;BME280;65481;47.600;19.682;2023-03-07T16:15:30;99077.78;;;6.81;77.72
76592;BME280;65481;47.600;19.682;2023-03-07T16:20:31;99070.28;;;6.73;79.17
76592;BME280;65481;47.600;19.682;2023-03-07T16:25:36;99064.69;;;6.70;80.07
76592;BME280;65481;47.600;19.682;2023-03-07T16:30:39;99051.81;;;6.68;80.57
76592;BME280;65481;47.600;19.682;2023-03-07T16:35:42;99052.59;;;6.69;80.76
76592;BME280;65481;47.600;19.682;2023-03-07T16:40:44;99047.16;;;6.58;81.31
76592;BME280;65481;47.600;19.682;2023-03-07T16:45:45;99053.88;;;6.54;81.38
76592;BME280;65481;47.600;19.682;2023-03-07T16:50:45;99061.41;;;6.50;82.54
76592;BME280;65481;47.600;19.682;2023-03-07T16:55:46;99054.00;;;6.47;83.36
76592;BME280;65481;47.600;19.682;2023-03-07T17:00:47;99050.03;;;6.45;83.64
76592;BME280;65481;47.600;19.682;2023-03-07T17:05:48;99057.78;;;6.40;84.96
76592;BME280;65481;47.600;19.682;2023-03-07T17:10:49;99048.56;;;6.37;85.72
76592;BME280;65481;47.600;19.682;2023-03-07T17:15:50;99038.63;;;6.39;85.62
76592;BME280;65481;47.600;19.682;2023-03-07T17:20:50;99036.81;;;6.40;84.81
76592;BME280;65481;47.600;19.682;2023-03-07T17:25:51;99046.03;;;6.30;84.82
76592;BME280;65481;47.600;19.682;2023-03-07T17:30:52;99036.03;;;6.15;84.97
76592;BME280;65481;47.600;19.682;2023-03-07T17:35:53;99036.31;;;5.95;85.40
76592;BME280;65481;47.600;19.682;2023-03-07T17:40:56;99041.19;;;5.91;86.07
76592;BME280;65481;47.600;19.682;2023-03-07T17:45:57;99040.16;;;5.81;86.37
76592;BME280;65481;47.600;19.682;2023-03-07T17:50:57;99029.56;;;5.75;86.72
76592;BME280;65481;47.600;19.682;2023-03-07T17:56:08;99022.84;;;5.80;87.13
76592;BME280;65481;47.600;19.682;2023-03-07T18:01:11;99023.78;;;5.73;89.28
76592;BME280;65481;47.600;19.682;2023-03-07T18:06:14;99016.47;;;5.64;90.90
76592;BME280;65481;47.600;19.682;2023-03-07T18:11:15;99018.72;;;5.60;91.98
76592;BME280;65481;47.600;19.682;2023-03-07T18:16:17;99019.75;;;5.59;92.67
76592;BME280;65481;47.600;19.682;2023-03-07T18:21:18;99016.25;;;5.65;93.80
76592;BME280;65481;47.600;19.682;2023-03-07T18:26:23;99016.94;;;5.72;93.67
76592;BME280;65481;47.600;19.682;2023-03-07T18:31:25;99022.75;;;5.74;93.46
76592;BME280;65481;47.600;19.682;2023-03-07T18:36:28;99020.94;;;5.75;93.25
76592;BME280;65481;47.600;19.682;2023-03-07T18:41:29;99020.00;;;5.69;93.16
76592;BME280;65481;47.600;19.682;2023-03-07T18:46:30;99012.59;;;5.66;93.17
76592;BME280;65481;47.600;19.682;2023-03-07T18:51:32;99007.94;;;5.68;93.29
76592;BME280;65481;47.600;19.682;2023-03-07T18:56:33;99014.78;;;5.69;93.00
76592;BME280;65481;47.600;19.682;2023-03-07T19:01:34;99008.16;;;5.67;93.70
76592;BME280;65481;47.600;19.682;2023-03-07T19:06:40;98997.47;;;5.68;93.46
76592;BME280;65481;47.600;19.682;2023-03-07T19:11:41;98992.25;;;5.68;93.65
76592;BME280;65481;47.600;19.682;2023-03-07T19:16:43;98997.03;;;5.71;93.87
76592;BME280;65481;47.600;19.682;2023-03-07T19:21:45;98998.16;;;5.75;93.60
76592;BME280;65481;47.600;19.682;2023-03-07T19:26:47;98992.13;;;5.75;93.58
76592;BME280;65481;47.600;19.682;2023-03-07T19:31:48;98995.31;;;5.77;93.46
76592;BME280;65481;47.600;19.682;2023-03-07T19:36:49;98992.13;;;5.75;93.28
76592;BME280;65481;47.600;19.682;2023-03-07T19:41:50;98981.19;;;5.54;94.74
76592;BME280;65481;47.600;19.682;2023-03-07T19:46:51;98974.56;;;5.40;95.73
76592;BME280;65481;47.600;19.682;2023-03-07T19:51:52;98979.88;;;5.33;95.44
76592;BME280;65481;47.600;19.682;2023-03-07T19:56:53;98985.69;;;5.35;95.44
76592;BME280;65481;47.600;19.682;2023-03-07T20:01:54;98994.13;;;5.37;95.20
76592;BME280;65481;47.600;19.682;2023-03-07T20:06:55;98994.34;;;5.36;96.29
76592;BME280;65481;47.600;19.682;2023-03-07T20:11:57;98985.13;;;5.33;97.08
76592;BME280;65481;47.600;19.682;2023-03-07T20:16:58;98988.75;;;5.32;97.62
76592;BME280;65481;47.600;19.682;2023-03-07T20:22:01;98988.75;;;5.32;98.42
76592;BME280;65481;47.600;19.682;2023-03-07T20:27:02;98983.72;;;5.30;98.98
76592;BME280;65481;47.600;19.682;2023-03-07T20:32:03;98977.13;;;5.28;99.67
76592;BME280;65481;47.600;19.682;2023-03-07T20:37:06;98976.47;;;5.33;99.87
76592;BME280;65481;47.600;19.682;2023-03-07T20:42:07;98967.03;;;5.31;100.00
76592;BME280;65481;47.600;19.682;2023-03-07T20:47:11;98970.88;;;5.29;100.00
76592;BME280;65481;47.600;19.682;2023-03-07T20:52:12;98970.31;;;5.27;100.00
76592;BME280;65481;47.600;19.682;2023-03-07T20:57:13;98968.03;;;5.30;100.00
76592;BME280;65481;47.600;19.682;2023-03-07T21:02:14;98971.38;;;5.38;100.00
76592;BME280;65481;47.600;19.682;2023-03-07T21:07:15;98971.72;;;5.41;100.00
76592;BME280;65481;47.600;19.682;2023-03-07T21:12:17;98968.88;;;5.43;100.00
76592;BME280;65481;47.600;19.682;2023-03-07T21:17:17;98976.84;;;5.48;100.00
76592;BME280;65481;47.600;19.682;2023-03-07T21:22:18;98967.41;;;5.59;100.00
76592;BME280;65481;47.600;19.682;2023-03-07T21:27:19;98972.78;;;5.64;100.00
76592;BME280;65481;47.600;19.682;2023-03-07T21:32:20;98966.41;;;5.72;100.00
76592;BME280;65481;47.600;19.682;2023-03-07T21:37:22;98955.72;;;5.73;100.00
76592;BME280;65481;47.600;19.682;2023-03-07T21:42:23;98962.09;;;5.78;100.00
76592;BME280;65481;47.600;19.682;2023-03-07T21:47:24;98957.22;;;5.81;100.00
76592;BME280;65481;47.600;19.682;2023-03-07T21:52:24;98954.94;;;5.85;100.00
76592;BME280;65481;47.600;19.682;2023-03-07T21:57:27;98951.16;;;5.81;100.00
76592;BME280;65481;47.600;19.682;2023-03-07T22:02:28;98947.41;;;5.76;100.00
76592;BME280;65481;47.600;19.682;2023-03-07T22:07:28;98933.66;;;5.69;100.00
76592;BME280;65481;47.600;19.682;2023-03-07T22:12:29;98927.59;;;5.69;100.00
76592;BME280;65481;47.600;19.682;2023-03-07T22:17:29;98919.06;;;5.50;100.00
76592;BME280;65481;47.600;19.682;2023-03-07T22:22:30;98916.19;;;5.39;100.00
76592;BME280;65481;47.600;19.682;2023-03-07T22:27:30;98907.81;;;5.37;100.00
76592;BME280;65481;47.600;19.682;2023-03-07T22:32:31;98902.44;;;5.32;100.00
76592;BME280;65481;47.600;19.682;2023-03-07T22:37:32;98900.28;;;5.29;100.00
76592;BME280;65481;47.600;19.682;2023-03-07T22:42:33;98897.75;;;5.22;100.00
76592;BME280;65481;47.600;19.682;2023-03-07T22:47:33;98887.41;;;5.15;100.00
76592;BME280;65481;47.600;19.682;2023-03-07T22:52:34;98887.16;;;5.17;100.00
76592;BME280;65481;47.600;19.682;2023-03-07T22:57:34;98873.06;;;5.18;100.00
76592;BME280;65481;47.600;19.682;2023-03-07T23:02:35;98881.50;;;5.20;100.00
76592;BME280;65481;47.600;19.682;2023-03-07T23:07:36;98888.31;;;5.21;100.00
76592;BME280;65481;47.600;19.682;2023-03-07T23:12:36;98880.94;;;5.18;100.00
76592;BME280;65481;47.600;19.682;2023-03-07T23:17:37;98860.34;;;5.10;100.00
76592;BME280;65481;47.600;19.682;2023-03-07T23:22:38;98866.13;;;5.12;100.00
76592;BME280;65481;47.600;19.682;2023-03-07T23:27:40;98866.47;;;5.04;100.00
76592;BME280;65481;47.600;19.682;2023-03-07T23:32:40;98876.22;;;4.96;100.00
76592;BME280;65481;47.600;19.682;2023-03-07T23:37:41;98870.19;;;4.96;100.00
76592;BME280;65481;47.600;19.682;2023-03-07T23:42:41;98877.56;;;4.87;100.00
76592;BME280;65481;47.600;19.682;2023-03-07T23:47:42;98876.06;;;4.79;100.00
76592;BME280;65481;47.600;19.682;2023-03-07T23:52:43;98890.25;;;4.72;100.00
76592;BME280;65481;47.600;19.682;2023-03-07T23:57:45;98893.97;;;4.64;100.00
